createdAt,value
2022-09-02T00:01:29.498Z,100600.91
2022-09-02T00:04:01.142Z,100594.81
2022-09-02T00:06:29.197Z,100587.69
2022-09-02T00:08:55.765Z,100585.66
2022-09-02T00:11:25.317Z,100594.66
2022-09-02T00:13:51.952Z,100594.91
2022-09-02T00:16:19.647Z,100588.19
2022-09-02T00:18:48.980Z,100582.50
2022-09-02T00:21:16.092Z,100579.84
2022-09-02T00:23:43.877Z,100584.16
2022-09-02T00:26:10.932Z,100574.47
2022-09-02T00:28:37.542Z,100588.03
2022-09-02T00:31:06.845Z,100574.47
2022-09-02T00:33:33.851Z,100568.25
2022-09-02T00:36:02.507Z,100574.44
2022-09-02T00:38:33.758Z,100575.88
2022-09-02T00:41:02.441Z,100580.03
2022-09-02T00:43:43.081Z,100569.84
2022-09-02T00:46:15.861Z,100563.47
2022-09-02T00:48:49.357Z,100577.41
2022-09-02T00:51:16.357Z,100568.28
2022-09-02T00:53:44.661Z,100558.53
2022-09-02T00:56:17.021Z,100552.72
2022-09-02T00:58:47.086Z,100546.53
2022-09-02T01:01:14.191Z,100551.03
2022-09-02T01:03:41.914Z,100546.25
2022-09-02T01:06:11.484Z,100544.06
2022-09-02T01:08:39.254Z,100539.03
2022-09-02T01:11:07.059Z,100551.53
2022-09-02T01:13:39.503Z,100545.22
2022-09-02T01:16:31.851Z,100551.59
2022-09-02T01:19:01.686Z,100564.94
2022-09-02T01:21:28.190Z,100552.38
2022-09-02T01:23:55.005Z,100556.72
2022-09-02T01:26:21.542Z,100554.59
2022-09-02T01:28:50.543Z,100567.47
2022-09-02T01:31:17.475Z,100554.22
2022-09-02T01:33:44.049Z,100576.38
2022-09-02T01:36:12.415Z,100566.94
2022-09-02T01:38:39.279Z,100566.47
2022-09-02T01:41:05.866Z,100573.63
2022-09-02T01:43:32.591Z,100553.13
2022-09-02T01:45:59.750Z,100538.56
2022-09-02T01:48:26.441Z,100546.84
2022-09-02T01:50:59.814Z,100543.69
2022-09-02T01:53:30.104Z,100548.84
2022-09-02T01:55:56.929Z,100544.06
2022-09-02T01:58:23.663Z,100547.78
2022-09-02T02:00:55.296Z,100544.16
2022-09-02T02:03:26.880Z,100535.81
2022-09-02T02:05:55.393Z,100546.84
2022-09-02T02:08:25.066Z,100534.84
2022-09-02T02:10:53.963Z,100531.13
2022-09-02T02:13:23.070Z,100550.59
2022-09-02T02:15:49.688Z,100544.22
2022-09-02T02:18:17.220Z,100539.78
2022-09-02T02:20:44.808Z,100547.38
2022-09-02T02:23:11.518Z,100552.63
2022-09-02T02:25:42.508Z,100536.25
2022-09-02T02:28:09.014Z,100543.84
2022-09-02T02:30:35.531Z,100541.84
2022-09-02T02:33:02.015Z,100543.78
2022-09-02T02:35:29.051Z,100538.47
2022-09-02T02:37:57.882Z,100555.19
2022-09-02T02:40:28.134Z,100541.09
2022-09-02T02:42:54.616Z,100544.63
2022-09-02T02:45:22.338Z,100539.84
2022-09-02T02:47:52.276Z,100528.56
2022-09-02T02:50:21.791Z,100535.84
2022-09-02T02:52:49.681Z,100523.63
2022-09-02T02:55:17.197Z,100521.63
2022-09-02T02:57:44.553Z,100515.06
2022-09-02T03:00:14.311Z,100532.25
2022-09-02T03:02:41.138Z,100534.00
2022-09-02T03:05:10.940Z,100541.78
2022-09-02T03:07:37.856Z,100539.22
2022-09-02T03:10:08.158Z,100574.31
2022-09-02T03:12:36.137Z,100565.78
2022-09-02T03:15:03.105Z,100554.75
2022-09-02T03:17:29.678Z,100565.94
2022-09-02T03:19:57.728Z,100576.19
2022-09-02T03:22:24.156Z,100571.28
2022-09-02T03:24:52.832Z,100567.09
2022-09-02T03:27:24.574Z,100563.94
2022-09-02T03:29:53.407Z,100566.22
2022-09-02T03:32:19.897Z,100553.59
2022-09-02T03:34:48.558Z,100557.88
2022-09-02T03:37:15.324Z,100522.56
2022-09-02T03:39:41.945Z,100533.25
2022-09-02T03:42:19.266Z,100550.72
2022-09-02T03:44:46.503Z,100543.84
2022-09-02T03:47:15.097Z,100551.19
2022-09-02T03:49:41.656Z,100554.34
2022-09-02T03:52:10.427Z,100555.94
2022-09-02T03:54:36.876Z,100546.53
2022-09-02T03:57:08.422Z,100545.59
2022-09-02T03:59:35.212Z,100527.13
2022-09-02T04:02:03.220Z,100530.88
2022-09-02T04:04:32.911Z,100542.19
2022-09-02T04:07:03.872Z,100527.69
2022-09-02T04:09:30.407Z,100540.34
2022-09-02T04:11:56.916Z,100520.16
2022-09-02T04:14:23.452Z,100516.91
2022-09-02T04:16:49.921Z,100521.66
2022-09-02T04:20:13.033Z,100537.22
2022-09-02T04:22:40.648Z,100557.41
2022-09-02T04:25:08.200Z,100571.03
2022-09-02T04:27:35.785Z,100552.00
2022-09-02T04:30:02.921Z,100541.28
2022-09-02T04:32:33.951Z,100539.84
2022-09-02T04:35:02.473Z,100539.16
2022-09-02T04:37:28.934Z,100534.09
2022-09-02T04:39:55.422Z,100521.72
2022-09-02T04:42:21.979Z,100518.84
2022-09-02T04:44:48.416Z,100519.56
2022-09-02T04:47:17.394Z,100520.47
2022-09-02T04:49:44.224Z,100520.31
2022-09-02T04:52:13.378Z,100523.31
2022-09-02T04:54:39.770Z,100521.66
2022-09-02T04:57:06.324Z,100520.22
2022-09-02T04:59:36.306Z,100531.00
2022-09-02T05:02:04.303Z,100527.88
2022-09-02T05:04:31.670Z,100526.00
2022-09-02T05:07:01.876Z,100519.44
2022-09-02T05:09:34.321Z,100533.19
2022-09-02T05:12:04.495Z,100530.03
2022-09-02T05:14:31.436Z,100527.06
2022-09-02T05:17:02.800Z,100527.50
2022-09-02T05:19:33.981Z,100524.75
2022-09-02T05:22:01.817Z,100536.41
2022-09-02T05:24:29.513Z,100537.44
2022-09-02T05:26:55.947Z,100547.94
2022-09-02T05:29:23.822Z,100533.34
2022-09-02T05:31:50.354Z,100548.38
2022-09-02T05:34:17.494Z,100546.88
2022-09-02T05:36:44.237Z,100536.97
2022-09-02T05:39:13.436Z,100541.00
2022-09-02T05:41:40.084Z,100533.38
2022-09-02T05:44:09.359Z,100526.03
2022-09-02T05:46:36.462Z,100549.69
2022-09-02T05:49:07.266Z,100541.75
2022-09-02T05:51:41.559Z,100542.41
2022-09-02T05:54:11.738Z,100541.16
2022-09-02T05:56:44.865Z,100539.38
2022-09-02T05:59:11.657Z,100550.78
2022-09-02T06:01:38.163Z,100557.13
2022-09-02T06:04:08.220Z,100553.22
2022-09-02T06:06:40.974Z,100548.72
2022-09-02T06:09:09.539Z,100564.38
2022-09-02T06:11:40.010Z,100566.13
2022-09-02T06:14:07.946Z,100570.47
2022-09-02T06:16:35.332Z,100566.75
2022-09-02T06:19:04.473Z,100588.34
2022-09-02T06:21:31.657Z,100618.72
2022-09-02T06:24:00.443Z,100607.00
2022-09-02T06:26:29.298Z,100641.06
2022-09-02T06:29:04.153Z,100644.34
2022-09-02T06:31:34.446Z,100624.16
2022-09-02T06:34:01.654Z,100643.44
2022-09-02T06:36:30.744Z,100621.72
2022-09-02T06:38:59.190Z,100645.53
2022-09-02T06:41:30.572Z,100649.66
2022-09-02T06:44:03.985Z,100643.16
2022-09-02T06:46:37.677Z,100648.09
2022-09-02T06:49:09.045Z,100636.22
2022-09-02T06:51:38.615Z,100653.41
2022-09-02T06:54:07.826Z,100646.47
2022-09-02T06:56:35.140Z,100616.03
2022-09-02T06:59:02.351Z,100650.53
2022-09-02T07:01:31.320Z,100642.34
2022-09-02T07:04:17.084Z,100647.88
2022-09-02T07:06:47.699Z,100649.56
2022-09-02T07:09:17.054Z,100645.59
2022-09-02T07:11:47.846Z,100643.03
2022-09-02T07:14:23.103Z,100655.28
2022-09-02T07:16:52.011Z,100667.94
2022-09-02T07:19:22.787Z,100651.69
2022-09-02T07:21:52.298Z,100655.66
2022-09-02T07:24:22.486Z,100662.41
2022-09-02T07:26:49.219Z,100660.72
2022-09-02T07:29:16.830Z,100642.00
2022-09-02T07:31:46.495Z,100638.31
2022-09-02T07:34:14.525Z,100641.88
2022-09-02T07:36:41.607Z,100639.91
2022-09-02T07:39:10.517Z,100658.59
2022-09-02T07:41:37.835Z,100631.88
2022-09-02T07:44:07.453Z,100646.81
2022-09-02T07:46:37.763Z,100644.50
2022-09-02T07:49:09.163Z,100655.16
2022-09-02T07:51:37.285Z,100641.84
2022-09-02T07:54:05.804Z,100660.47
2022-09-02T07:56:34.651Z,100665.00
2022-09-02T07:59:01.134Z,100666.41
2022-09-02T08:01:31.046Z,100676.66
2022-09-02T08:04:00.346Z,100689.22
2022-09-02T08:06:34.857Z,100686.56
2022-09-02T08:09:04.025Z,100678.84
2022-09-02T08:11:31.586Z,100682.63
2022-09-02T08:13:59.428Z,100681.19
2022-09-02T08:16:25.890Z,100693.88
2022-09-02T08:21:19.118Z,100684.22
2022-09-02T08:23:51.414Z,100692.22
2022-09-02T08:26:18.916Z,100673.19
2022-09-02T08:28:45.642Z,100686.44
2022-09-02T08:31:12.144Z,100708.34
2022-09-02T08:33:38.649Z,100694.72
2022-09-02T08:36:11.765Z,100705.84
2022-09-02T08:38:38.210Z,100697.75
2022-09-02T08:41:28.870Z,100689.25
2022-09-02T08:44:00.241Z,100701.22
2022-09-02T08:46:31.191Z,100700.97
2022-09-02T08:48:57.611Z,100710.41
2022-09-02T08:51:37.228Z,100694.13
2022-09-02T08:54:17.934Z,100706.84
2022-09-02T08:56:44.428Z,100670.56
2022-09-02T08:59:13.046Z,100711.69
2022-09-02T09:01:51.260Z,100718.53
2022-09-02T09:04:36.448Z,100702.47
2022-09-02T09:07:24.506Z,100703.72
2022-09-02T09:09:56.449Z,100728.75
2022-09-02T09:12:47.577Z,100698.16
2022-09-02T09:16:01.515Z,100717.25
2022-09-02T09:19:03.878Z,100703.25
2022-09-02T09:21:33.357Z,100719.25
2022-09-02T09:24:10.234Z,100723.28
2022-09-02T09:26:40.883Z,100703.88
2022-09-02T09:29:10.672Z,100715.16
2022-09-02T09:31:38.734Z,100736.59
2022-09-02T09:34:08.111Z,100744.75
2022-09-02T09:36:42.937Z,100751.34
2022-09-02T09:39:24.849Z,100749.25
2022-09-02T09:41:54.068Z,100755.66
2022-09-02T09:44:43.239Z,100740.19
2022-09-02T09:47:18.008Z,100759.78
2022-09-02T09:49:45.943Z,100775.66
2022-09-02T09:52:24.752Z,100785.81
2022-09-02T09:55:06.518Z,100761.72
2022-09-02T09:57:35.778Z,100761.25
2022-09-02T10:00:11.613Z,100762.88
2022-09-02T10:02:47.188Z,100761.25
2022-09-02T10:05:23.896Z,100762.16
2022-09-02T10:07:56.230Z,100773.44
2022-09-02T10:10:29.313Z,100830.09
2022-09-02T10:13:00.223Z,100842.78
2022-09-02T10:15:59.714Z,100824.75
2022-09-02T10:18:38.226Z,100808.19
2022-09-02T10:21:14.994Z,100807.59
2022-09-02T10:23:53.185Z,100829.75
2022-09-02T10:26:38.026Z,100849.88
2022-09-02T10:29:07.123Z,100862.16
2022-09-02T10:31:49.415Z,100895.41
2022-09-02T10:34:30.168Z,100884.88
2022-09-02T10:37:05.378Z,100838.72
2022-09-02T10:39:47.135Z,100799.22
2022-09-02T10:42:19.824Z,100803.41
2022-09-02T10:45:24.255Z,100781.91
2022-09-02T10:48:14.730Z,100742.16
2022-09-02T10:50:48.051Z,100763.28
2022-09-02T10:53:47.186Z,100755.19
2022-09-02T10:56:21.736Z,100750.69
2022-09-02T10:58:48.716Z,100734.75
2022-09-02T11:01:20.691Z,100721.75
2022-09-02T11:04:13.420Z,100713.56
2022-09-02T11:07:04.292Z,100715.75
2022-09-02T11:09:38.556Z,100693.47
2022-09-02T11:12:07.810Z,100680.69
2022-09-02T11:14:49.131Z,100672.44
2022-09-02T11:17:30.935Z,100671.91
2022-09-02T11:20:38.771Z,100660.47
2022-09-02T11:23:19.169Z,100649.94
2022-09-02T11:26:07.558Z,100642.41
2022-09-02T11:28:59.758Z,100634.81
2022-09-02T11:31:42.292Z,100635.09
2022-09-02T11:34:20.967Z,100614.50
2022-09-02T11:36:49.100Z,100619.44
2022-09-02T11:39:36.638Z,100611.63
2022-09-02T11:42:37.377Z,100606.09
2022-09-02T11:45:24.051Z,100609.75
2022-09-02T11:48:02.885Z,100618.34
2022-09-02T11:50:48.282Z,100599.41
2022-09-02T11:53:24.028Z,100591.06
2022-09-02T11:55:56.398Z,100582.13
2022-09-02T11:58:44.299Z,100579.34
2022-09-02T12:01:54.501Z,100565.97
2022-09-02T12:04:58.760Z,100554.25
2022-09-02T12:07:13.329Z,100557.84
2022-09-02T12:09:55.881Z,100569.31
2022-09-02T12:12:41.477Z,100569.56
2022-09-02T12:15:18.702Z,100555.06
2022-09-02T12:17:49.753Z,100540.81
2022-09-02T12:20:38.772Z,100537.75
2022-09-02T12:23:10.053Z,100536.88
2022-09-02T12:25:38.567Z,100529.09
2022-09-02T12:28:19.098Z,100528.00
2022-09-02T12:30:56.484Z,100525.47
2022-09-02T12:33:32.978Z,100514.59
2022-09-02T12:36:02.797Z,100491.44
2022-09-02T12:38:42.881Z,100492.81
2022-09-02T12:41:20.348Z,100476.84
2022-09-02T12:44:19.009Z,100491.66
2022-09-02T12:46:59.888Z,100488.63
2022-09-02T12:49:35.283Z,100484.72
2022-09-02T12:52:09.787Z,100478.84
2022-09-02T12:54:36.188Z,100466.31
2022-09-02T12:57:04.253Z,100462.38
2022-09-02T12:59:37.707Z,100455.91
2022-09-02T13:02:42.379Z,100452.13
2022-09-02T13:05:51.081Z,100442.84
2022-09-02T13:08:29.543Z,100439.41
2022-09-02T13:11:14.809Z,100427.97
2022-09-02T13:14:15.279Z,100419.59
2022-09-02T13:16:44.083Z,100424.56
2022-09-02T13:19:29.226Z,100415.66
2022-09-02T13:22:24.046Z,100393.84
2022-09-02T13:25:05.757Z,100399.44
2022-09-02T13:27:56.747Z,100386.56
2022-09-02T13:30:54.619Z,100379.69
2022-09-02T13:33:23.774Z,100378.53
2022-09-02T13:35:59.095Z,100380.25
2022-09-02T13:38:28.499Z,100369.88
2022-09-02T13:40:55.519Z,100355.34
2022-09-02T13:43:26.176Z,100349.72
2022-09-02T13:45:59.435Z,100341.41
2022-09-02T13:48:33.016Z,100350.28
2022-09-02T13:51:22.609Z,100345.25
2022-09-02T13:54:21.702Z,100343.31
2022-09-02T13:56:37.620Z,100320.97
2022-09-02T13:59:04.215Z,100326.34
2022-09-02T14:01:34.258Z,100320.19
2022-09-02T14:06:45.546Z,100314.56
2022-09-02T14:09:21.155Z,100316.81
2022-09-02T14:11:49.092Z,100305.94
2022-09-02T14:14:17.882Z,100294.88
2022-09-02T14:16:44.617Z,100293.72
2022-09-02T14:19:14.559Z,100274.47
2022-09-02T14:21:50.079Z,100276.78
2022-09-02T14:24:21.211Z,100267.81
2022-09-02T14:26:54.290Z,100260.81
2022-09-02T14:29:21.589Z,100270.91
2022-09-02T14:32:23.167Z,100262.28
2022-09-02T14:35:08.994Z,100261.72
2022-09-02T14:37:51.584Z,100267.31
2022-09-02T14:40:30.809Z,100262.06
2022-09-02T14:42:59.646Z,100264.00
2022-09-02T14:45:33.865Z,100249.00
2022-09-02T14:48:21.789Z,100247.00
2022-09-02T14:50:48.846Z,100240.59
2022-09-02T14:53:22.684Z,100238.66
2022-09-02T14:55:54.569Z,100240.84
2022-09-02T14:58:24.135Z,100238.44
2022-09-02T15:01:01.434Z,100239.53
2022-09-02T15:03:33.135Z,100233.41
2022-09-02T15:05:59.524Z,100226.22
2022-09-02T15:08:26.056Z,100227.00
2022-09-02T15:10:56.667Z,100233.91
2022-09-02T15:13:32.469Z,100226.19
2022-09-02T15:15:59.540Z,100222.25
2022-09-02T15:18:26.441Z,100213.31
2022-09-02T15:20:52.946Z,100208.00
2022-09-02T15:23:19.738Z,100201.59
2022-09-02T15:25:46.884Z,100210.22
2022-09-02T15:28:13.620Z,100210.53
2022-09-02T15:30:42.707Z,100218.59
2022-09-02T15:33:16.612Z,100225.03
2022-09-02T15:35:44.540Z,100221.44
2022-09-02T15:38:11.036Z,100204.69
2022-09-02T15:40:37.526Z,100220.00
2022-09-02T15:43:03.957Z,100211.38
2022-09-02T15:45:30.750Z,100204.69
2022-09-02T15:47:58.892Z,100208.31
2022-09-02T15:50:26.248Z,100217.19
2022-09-02T15:52:55.789Z,100207.75
2022-09-02T15:55:29.161Z,100218.91
2022-09-02T15:57:59.416Z,100213.31
2022-09-02T16:00:27.663Z,100205.53
2022-09-02T16:02:56.790Z,100221.44
2022-09-02T16:05:24.160Z,100222.31
2022-09-02T16:07:52.062Z,100222.28
2022-09-02T16:10:18.457Z,100215.84
2022-09-02T16:12:48.363Z,100219.72
2022-09-02T16:15:15.055Z,100219.47
2022-09-02T16:17:42.041Z,100221.16
2022-09-02T16:20:11.394Z,100216.69
2022-09-02T16:22:40.787Z,100206.13
2022-09-02T16:25:07.718Z,100207.78
2022-09-02T16:27:52.574Z,100205.25
2022-09-02T16:30:19.511Z,100193.28
2022-09-02T16:32:47.604Z,100199.16
2022-09-02T16:35:14.088Z,100191.91
2022-09-02T16:37:40.602Z,100195.81
2022-09-02T16:40:07.898Z,100190.56
2022-09-02T16:42:38.151Z,100197.28
2022-09-02T16:45:05.516Z,100193.09
2022-09-02T16:47:32.324Z,100192.81
2022-09-02T16:49:58.833Z,100180.88
2022-09-02T16:52:25.237Z,100172.81
2022-09-02T16:54:51.706Z,100165.88
2022-09-02T16:57:20.632Z,100182.34
2022-09-02T16:59:47.138Z,100172.03
2022-09-02T17:02:15.882Z,100163.38
2022-09-02T17:04:42.394Z,100160.59
2022-09-02T17:07:09.490Z,100162.84
2022-09-02T17:09:35.992Z,100156.16
2022-09-02T17:12:02.717Z,100155.59
2022-09-02T17:14:31.796Z,100164.53
2022-09-02T17:16:58.320Z,100152.28
2022-09-02T17:19:32.124Z,100149.22
2022-09-02T17:21:58.804Z,100161.19
2022-09-02T17:24:31.009Z,100149.78
2022-09-02T17:26:57.635Z,100157.31
2022-09-02T17:29:47.937Z,100153.16
2022-09-02T17:32:13.547Z,100147.31
2022-09-02T17:34:39.996Z,100156.50
2022-09-02T17:37:06.407Z,100141.19
2022-09-02T17:39:34.343Z,100137.00
2022-09-02T17:42:02.140Z,100127.00
2022-09-02T17:44:37.627Z,100130.06
2022-09-02T17:47:06.259Z,100123.13
2022-09-02T17:49:39.075Z,100123.91
2022-09-02T17:52:07.569Z,100124.50
2022-09-02T17:54:39.214Z,100124.47
2022-09-02T17:57:10.604Z,100120.88
2022-09-02T17:59:43.560Z,100115.88
2022-09-02T18:02:46.551Z,100113.91
2022-09-02T18:05:28.889Z,100113.34
2022-09-02T18:08:40.571Z,100115.00
2022-09-02T18:11:07.843Z,100110.00
2022-09-02T18:13:40.948Z,100110.00
2022-09-02T18:16:25.893Z,100109.41
2022-09-02T18:19:13.708Z,100101.06
2022-09-02T18:22:15.334Z,100108.50
2022-09-02T18:25:14.962Z,100111.28
2022-09-02T18:28:09.597Z,100099.06
2022-09-02T18:30:49.252Z,100091.78
2022-09-02T18:33:34.543Z,100095.91
2022-09-02T18:36:34.316Z,100098.19
2022-09-02T18:39:07.243Z,100092.84
2022-09-02T18:41:33.655Z,100098.97
2022-09-02T18:44:15.022Z,100103.13
2022-09-02T18:46:59.032Z,100110.06
2022-09-02T18:49:31.081Z,100112.84
2022-09-02T18:52:00.574Z,100120.34
2022-09-02T18:54:31.028Z,100115.91
2022-09-02T18:57:08.027Z,100109.41
2022-09-02T18:59:42.023Z,100104.00
2022-09-02T19:02:49.036Z,100095.28
2022-09-02T19:08:04.019Z,100100.81
2022-09-02T19:10:30.513Z,100106.41
2022-09-02T19:13:01.836Z,100102.94
2022-09-02T19:15:28.258Z,100113.34
2022-09-02T19:17:54.858Z,100117.75
2022-09-02T19:20:22.061Z,100104.59
2022-09-02T19:22:52.450Z,100108.41
2022-09-02T19:25:28.954Z,100127.66
2022-09-02T19:27:57.292Z,100109.88
2022-09-02T19:30:24.572Z,100116.09
2022-09-02T19:32:58.759Z,100113.72
2022-09-02T19:35:32.523Z,100122.06
2022-09-02T19:37:59.691Z,100127.31
2022-09-02T19:40:33.011Z,100126.47
2022-09-02T19:43:05.599Z,100131.50
2022-09-02T19:45:36.105Z,100120.41
2022-09-02T19:48:07.879Z,100122.63
2022-09-02T19:50:48.371Z,100131.44
2022-09-02T19:53:25.696Z,100118.41
2022-09-02T19:55:54.793Z,100123.97
2022-09-02T19:58:21.355Z,100121.44
2022-09-02T20:00:53.137Z,100124.47
2022-09-02T20:03:21.076Z,100122.16
2022-09-02T20:05:54.628Z,100116.19
2022-09-02T20:08:24.359Z,100125.84
2022-09-02T20:10:58.369Z,100119.44
2022-09-02T20:13:26.390Z,100118.06
2022-09-02T20:15:54.664Z,100121.13
2022-09-02T20:18:26.611Z,100125.00
2022-09-02T20:20:54.840Z,100125.84
2022-09-02T20:23:26.353Z,100120.81
2022-09-02T20:26:02.613Z,100119.97
2022-09-02T20:28:47.747Z,100113.28
2022-09-02T20:31:43.426Z,100107.63
2022-09-02T20:34:36.906Z,100100.09
2022-09-02T20:37:09.009Z,100094.50
2022-09-02T20:39:55.617Z,100097.28
2022-09-02T20:42:55.353Z,100082.25
2022-09-02T20:45:35.230Z,100086.72
2022-09-02T20:48:43.949Z,100092.50
2022-09-02T20:51:38.195Z,100089.44
2022-09-02T20:54:31.612Z,100090.53
2022-09-02T20:57:03.957Z,100082.00
2022-09-02T20:59:49.676Z,100088.59
2022-09-02T21:02:20.403Z,100080.19
2022-09-02T21:05:00.642Z,100088.34
2022-09-02T21:07:34.306Z,100081.09
2022-09-02T21:10:12.589Z,100091.03
2022-09-02T21:12:45.967Z,100087.44
2022-09-02T21:15:24.363Z,100085.78
2022-09-02T21:17:59.024Z,100095.81
2022-09-02T21:21:06.932Z,100096.38
2022-09-02T21:23:38.661Z,100092.22
2022-09-02T21:26:10.768Z,100088.88
2022-09-02T21:28:49.971Z,100098.91
2022-09-02T21:31:28.584Z,100095.50
2022-09-02T21:33:59.694Z,100094.44
2022-09-02T21:36:30.406Z,100092.22
2022-09-02T21:38:58.943Z,100089.22
2022-09-02T21:41:35.925Z,100083.97
2022-09-02T21:44:14.490Z,100092.28
2022-09-02T21:46:58.052Z,100087.88
2022-09-02T21:49:51.808Z,100091.78
2022-09-02T21:52:34.420Z,100091.72
2022-09-02T21:55:03.803Z,100087.81
2022-09-02T21:57:48.888Z,100074.59
2022-09-02T22:00:16.919Z,100083.88
2022-09-02T22:02:59.974Z,100068.75
2022-09-02T22:05:29.350Z,100077.66
2022-09-02T22:08:11.905Z,100079.28
2022-09-02T22:11:08.379Z,100085.19
2022-09-02T22:13:40.176Z,100086.81
2022-09-02T22:16:13.333Z,100073.03
2022-09-02T22:18:48.955Z,100074.03
2022-09-02T22:21:19.638Z,100076.22
2022-09-02T22:23:52.854Z,100079.81
2022-09-02T22:26:38.528Z,100076.28
2022-09-02T22:29:13.204Z,100073.41
2022-09-02T22:31:45.109Z,100076.72
2022-09-02T22:34:16.093Z,100084.97
2022-09-02T22:37:02.595Z,100084.44
2022-09-02T22:39:50.441Z,100088.44
2022-09-02T22:42:27.167Z,100084.66
2022-09-02T22:45:18.311Z,100086.59
2022-09-02T22:48:10.128Z,100086.34
2022-09-02T22:51:05.416Z,100075.09
2022-09-02T22:53:31.991Z,100072.81
2022-09-02T22:56:02.847Z,100066.78
2022-09-02T22:58:38.710Z,100071.94
2022-09-02T23:01:20.314Z,100063.81
2022-09-02T23:04:06.289Z,100058.63
2022-09-02T23:06:33.329Z,100058.88
2022-09-02T23:09:10.506Z,100062.13
2022-09-02T23:11:58.183Z,100063.19
2022-09-02T23:14:44.498Z,100066.50
2022-09-02T23:17:23.567Z,100069.28
2022-09-02T23:20:19.966Z,100059.19
2022-09-02T23:23:03.313Z,100067.56
2022-09-02T23:25:56.864Z,100057.25
2022-09-02T23:28:41.813Z,100062.88
2022-09-02T23:31:25.919Z,100066.56
2022-09-02T23:34:17.986Z,100059.06
2022-09-02T23:36:58.505Z,100066.97
2022-09-02T23:40:08.719Z,100059.94
2022-09-02T23:42:35.198Z,100064.19
2022-09-02T23:45:21.696Z,100071.09
2022-09-02T23:48:26.489Z,100064.72
2022-09-02T23:51:29.674Z,100057.78
2022-09-02T23:54:14.780Z,100051.34
2022-09-02T23:57:06.510Z,100062.50
2022-09-02T23:59:42.409Z,100056.72
